Solea — DBFI — position and weather

sailwx.info

Track history (hours):
 
Tides and Currents Weather Stations Pressure Air Temp Water Temp Dewpoint Dewpoint Depression Visibility Wind Speed Wind Dir Waves Ship Positions

Oceanographic research ship Solea (Germany)

Detailed information on ship capabilities available from University of Delaware's Ocean Information Center.

Last reported at 2017-Aug-19 19:40 UTC. Time now 2017-Aug-20 03:46 UTC.
Position N 53°49' E 007°33'.

Length 72 m; draft 5.2 m.

Type: Law enforcement. MMSI: 218692000.

Date/timePositionNaut miles runAvg speedWind from/ knotsBaromVisibWave heightAir tempDewpointWater temp
2017-Aug-19 19:40N 53°49' E 007°33'0 1.3
2017-Aug-19 19:27N 53°49' E 007°33'1 1.3
2017-Aug-19 19:00N 53°50' E 007°34'1 1.2
2017-Aug-19 18:30N 53°50' E 007°35'25 1.3
2017-Aug-18 23:47N 54°11' E 007°57'0 0.5
2017-Aug-18 23:30N 54°11' E 007°58'8 1.1
2017-Aug-18 16:20N 54°17' E 007°49'3013.5
2017-Aug-18 14:08N 54°39' E 007°14'4 6.1
2017-Aug-18 13:29N 54°42' E 007°10'0 0.3
2017-Aug-18 12:52N 54°42' E 007°10'0 0.5
2017-Aug-18 12:29N 54°42' E 007°10'0 0.2
2017-Aug-18 11:44N 54°42' E 007°10'  
2017-Aug-14 11:47N 54°28' E 006°12'13 0.3
2017-Aug-12 11:20N 54°15' E 006°06'76 1.5
2017-Aug-10 10:06N 54°02' E 008°14'112.3
2017-Aug-10 10:00N 54°01' E 008°16'611.8
2017-Aug-10 09:30N 53°59' E 008°25'612.5
2017-Aug-10 09:01N 53°58' E 008°35'714.4
2017-Aug-10 08:30N 53°52' E 008°43'0 0.7
2017-Aug-10 08:00N 53°52' E 008°43'0 0.0
2017-Aug-10 07:27N 53°52' E 008°43'0 0.0
2017-Aug-10 06:54N 53°52' E 008°43'0 0.0
2017-Aug-10 06:27N 53°52' E 008°43'0 0.0
2017-Aug-10 06:00N 53°52' E 008°43'0 0.0
2017-Aug-10 05:27N 53°52' E 008°43'0 0.0
2017-Aug-10 05:00N 53°52' E 008°43'0 0.0
2017-Aug-10 04:29N 53°52' E 008°43'0 0.0
2017-Aug-10 03:59N 53°52' E 008°43'0 0.0
2017-Aug-10 03:27N 53°52' E 008°43'0 0.0
2017-Aug-10 02:59N 53°52' E 008°43'0 0.0
2017-Aug-10 02:26N 53°52' E 008°43'0 0.0
2017-Aug-10 02:00N 53°52' E 008°43'0 0.0
2017-Aug-10 01:29N 53°52' E 008°43'0 0.0
2017-Aug-10 00:59N 53°52' E 008°43'0 0.0
2017-Aug-10 00:30N 53°52' E 008°43'0 0.0
2017-Aug-09 23:59N 53°52' E 008°43'0 0.0
2017-Aug-09 23:26N 53°52' E 008°43'0 0.0
2017-Aug-09 22:59N 53°52' E 008°43'0 0.0
2017-Aug-09 22:30N 53°52' E 008°43'0 0.0
2017-Aug-09 21:59N 53°52' E 008°43'0 0.0
2017-Aug-09 21:30N 53°52' E 008°43'0 0.0
2017-Aug-09 20:56N 53°52' E 008°43'0 0.0
2017-Aug-09 20:30N 53°52' E 008°43'0 0.0
2017-Aug-09 19:59N 53°52' E 008°43'  
Track history (hours):
 
Tides and Currents Weather Stations Pressure Air Temp Water Temp Dewpoint Dewpoint Depression Visibility Wind Speed Wind Dir Waves Ship Positions

Oceanographic research ship Solea (Germany)

Detailed information on ship capabilities available from University of Delaware's Ocean Information Center.

Last reported at 2017-Aug-19 19:40 UTC. Time now 2017-Aug-20 03:46 UTC.
Position N 53°49' E 007°33'.

Length 72 m; draft 5.2 m.

Type: Law enforcement. MMSI: 218692000.

Date/timePositionNaut miles runAvg speedWind from/ knotsBaromVisibWave heightAir tempDewpointWater temp
2017-Aug-19 19:40N 53°49' E 007°33'0 1.3
2017-Aug-19 19:27N 53°49' E 007°33'1 1.3
2017-Aug-19 19:00N 53°50' E 007°34'1 1.2
2017-Aug-19 18:30N 53°50' E 007°35'25 1.3
2017-Aug-18 23:47N 54°11' E 007°57'0 0.5
2017-Aug-18 23:30N 54°11' E 007°58'8 1.1
2017-Aug-18 16:20N 54°17' E 007°49'3013.5
2017-Aug-18 14:08N 54°39' E 007°14'4 6.1
2017-Aug-18 13:29N 54°42' E 007°10'0 0.3
2017-Aug-18 12:52N 54°42' E 007°10'0 0.5
2017-Aug-18 12:29N 54°42' E 007°10'0 0.2
2017-Aug-18 11:44N 54°42' E 007°10'  
2017-Aug-14 11:47N 54°28' E 006°12'13 0.3
2017-Aug-12 11:20N 54°15' E 006°06'76 1.5
2017-Aug-10 10:06N 54°02' E 008°14'112.3
2017-Aug-10 10:00N 54°01' E 008°16'611.8
2017-Aug-10 09:30N 53°59' E 008°25'612.5
2017-Aug-10 09:01N 53°58' E 008°35'714.4
2017-Aug-10 08:30N 53°52' E 008°43'0 0.7
2017-Aug-10 08:00N 53°52' E 008°43'0 0.0
2017-Aug-10 07:27N 53°52' E 008°43'0 0.0
2017-Aug-10 06:54N 53°52' E 008°43'0 0.0
2017-Aug-10 06:27N 53°52' E 008°43'0 0.0
2017-Aug-10 06:00N 53°52' E 008°43'0 0.0
2017-Aug-10 05:27N 53°52' E 008°43'0 0.0
2017-Aug-10 05:00N 53°52' E 008°43'0 0.0
2017-Aug-10 04:29N 53°52' E 008°43'0 0.0
2017-Aug-10 03:59N 53°52' E 008°43'0 0.0
2017-Aug-10 03:27N 53°52' E 008°43'0 0.0
2017-Aug-10 02:59N 53°52' E 008°43'0 0.0
2017-Aug-10 02:26N 53°52' E 008°43'0 0.0
2017-Aug-10 02:00N 53°52' E 008°43'0 0.0
2017-Aug-10 01:29N 53°52' E 008°43'0 0.0
2017-Aug-10 00:59N 53°52' E 008°43'0 0.0
2017-Aug-10 00:30N 53°52' E 008°43'0 0.0
2017-Aug-09 23:59N 53°52' E 008°43'0 0.0
2017-Aug-09 23:26N 53°52' E 008°43'0 0.0
2017-Aug-09 22:59N 53°52' E 008°43'0 0.0
2017-Aug-09 22:30N 53°52' E 008°43'0 0.0
2017-Aug-09 21:59N 53°52' E 008°43'0 0.0
2017-Aug-09 21:30N 53°52' E 008°43'0 0.0
2017-Aug-09 20:56N 53°52' E 008°43'0 0.0
2017-Aug-09 20:30N 53°52' E 008°43'0 0.0
2017-Aug-09 19:59N 53°52' E 008°43'  

Dump ship's entire track history